Time;durP1;ratioP1;P1;durP2;ratioP2;P2;SDS_P1;SDS_P2;PMS_P1;PMS_P2;Temp;Humidity;BMP_temperature;BMP_pressure;BME280_temperature;BME280_humidity;BME280_pressure;Samples;Min_cycle;Max_cycle;Signal;HPM_P1;HPM_P2
2023/01/01 00:01:54;;;;;;;12.35;5.75;;;;;;;;;;5105075;27;20024;-80
2023/01/01 00:04:20;;;;;;;8.25;5.10;;;;;;;;;;5109093;27;20492;-73
2023/01/01 00:06:46;;;;;;;9.90;4.72;;;;;;;;;;5110271;27;20425;-77
2023/01/01 00:11:57;;;;;;;13.40;6.43;;;;;;;;;;5110647;27;20034;-80
2023/01/01 00:14:23;;;;;;;16.85;5.50;;;;;;;;;;5109820;27;20035;-79
2023/01/01 00:16:50;;;;;;;12.65;5.55;;;;;;;;;;5118014;27;20034;-78
2023/01/01 00:19:16;;;;;;;9.85;5.35;;;;;;;;;;5114100;27;20036;-74
2023/01/01 00:21:42;;;;;;;14.45;6.50;;;;;;;;;;5112805;27;20080;-74
2023/01/01 00:24:08;;;;;;;18.88;6.28;;;;;;;;;;5111325;27;20761;-79
2023/01/01 00:26:34;;;;;;;10.70;6.85;;;;;;;;;;5110383;27;20460;-79
2023/01/01 00:29:00;;;;;;;14.30;6.07;;;;;;;;;;5120392;27;20404;-73
2023/01/01 00:31:27;;;;;;;10.63;7.07;;;;;;;;;;5115584;27;20018;-79
2023/01/01 00:33:54;;;;;;;16.27;6.07;;;;;;;;;;5114607;27;20161;-74
2023/01/01 00:36:21;;;;;;;10.82;5.53;;;;;;;;;;5112692;27;20153;-77
2023/01/01 00:38:48;;;;;;;10.75;4.78;;;;;;;;;;5110987;27;20043;-78
2023/01/01 00:41:14;;;;;;;8.98;4.68;;;;;;;;;;5118521;27;20032;-74
2023/01/01 00:43:41;;;;;;;10.77;4.70;;;;;;;;;;5111091;27;20031;-78
2023/01/01 00:46:07;;;;;;;10.73;4.50;;;;;;;;;;5114778;27;20032;-74
2023/01/01 00:48:33;;;;;;;9.27;4.80;;;;;;;;;;5110341;27;20027;-77
2023/01/01 00:50:59;;;;;;;13.00;4.97;;;;;;;;;;5110363;27;20024;-79
2023/01/01 00:53:26;;;;;;;10.98;6.45;;;;;;;;;;5116203;27;20122;-79
2023/01/01 00:55:55;;;;;;;13.98;8.10;;;;;;;;;;5115819;27;20015;-79
2023/01/01 00:58:21;;;;;;;15.20;7.95;;;;;;;;;;5115937;27;20043;-78
2023/01/01 01:00:47;;;;;;;17.10;6.55;;;;;;;;;;5111264;27;20017;-79
2023/01/01 01:03:35;;;;;;;15.70;7.40;;;;;;;;;;5114677;27;20027;-75
2023/01/01 01:06:03;;;;;;;18.83;8.02;;;;;;;;;;5117034;27;20434;-80
2023/01/01 01:08:30;;;;;;;13.35;6.55;;;;;;;;;;5112889;27;20131;-78
2023/01/01 01:11:04;;;;;;;10.95;5.72;;;;;;;;;;5108992;27;20035;-78
2023/01/01 01:13:30;;;;;;;15.48;10.27;;;;;;;;;;5115831;27;20475;-77
2023/01/01 01:15:56;;;;;;;14.68;8.75;;;;;;;;;;5112730;27;20024;-76
2023/01/01 01:18:22;;;;;;;18.15;7.00;;;;;;;;;;5115520;27;20372;-74
2023/01/01 01:20:50;;;;;;;11.75;6.00;;;;;;;;;;5115098;27;20055;-78
2023/01/01 01:23:16;;;;;;;14.77;5.30;;;;;;;;;;5112086;27;20511;-77
2023/01/01 01:25:43;;;;;;;7.53;3.80;;;;;;;;;;5120270;27;20019;-77
2023/01/01 01:28:09;;;;;;;10.23;5.25;;;;;;;;;;5112426;27;20012;-69
2023/01/01 01:30:37;;;;;;;9.00;4.53;;;;;;;;;;5113411;27;20031;-69
2023/01/01 01:33:04;;;;;;;11.95;4.22;;;;;;;;;;5112126;27;20029;-71
2023/01/01 01:35:30;;;;;;;9.20;4.30;;;;;;;;;;5117923;27;20027;-70
2023/01/01 01:37:56;;;;;;;11.82;4.50;;;;;;;;;;5109509;27;20039;-71
2023/01/01 01:40:22;;;;;;;13.77;4.85;;;;;;;;;;5115451;27;20110;-70
2023/01/01 01:42:50;;;;;;;11.13;4.00;;;;;;;;;;5109678;27;20095;-70
2023/01/01 01:45:16;;;;;;;7.43;4.57;;;;;;;;;;5110626;27;20027;-70
2023/01/01 01:47:46;;;;;;;14.32;4.75;;;;;;;;;;5120935;27;20035;-70
2023/01/01 01:50:22;;;;;;;32.22;21.05;;;;;;;;;;5113049;27;20475;-71
2023/01/01 01:53:12;;;;;;;17.35;11.93;;;;;;;;;;5111885;27;20101;-70
2023/01/01 01:55:40;;;;;;;12.43;6.90;;;;;;;;;;5098579;27;20062;-79
2023/01/01 01:58:09;;;;;;;7.75;4.53;;;;;;;;;;5115864;27;20020;-71
2023/01/01 02:00:35;;;;;;;12.13;5.25;;;;;;;;;;5123142;27;20378;-70
2023/01/01 02:03:07;;;;;;;10.90;4.55;;;;;;;;;;5115240;27;20035;-70
2023/01/01 02:05:33;;;;;;;15.07;5.55;;;;;;;;;;5112600;27;20029;-70
2023/01/01 02:08:00;;;;;;;12.02;4.68;;;;;;;;;;5110804;27;20028;-70
2023/01/01 02:10:27;;;;;;;9.25;4.93;;;;;;;;;;5116453;27;20019;-70
2023/01/01 02:12:53;;;;;;;12.50;5.28;;;;;;;;;;5117695;27;20012;-70
2023/01/01 02:15:21;;;;;;;10.75;4.63;;;;;;;;;;5116834;27;20027;-70
2023/01/01 02:18:19;;;;;;;12.95;4.63;;;;;;;;;;5112860;27;20237;-70
2023/01/01 02:20:57;;;;;;;7.20;4.55;;;;;;;;;;5088057;27;20031;-69
2023/01/01 02:23:43;;;;;;;17.73;12.38;;;;;;;;;;5116757;27;20575;-70
2023/01/01 02:26:09;;;;;;;18.58;9.80;;;;;;;;;;5111833;27;20605;-71
2023/01/01 02:28:35;;;;;;;14.52;7.53;;;;;;;;;;5113357;27;20030;-70
2023/01/01 02:31:01;;;;;;;13.13;5.07;;;;;;;;;;5128661;27;20026;-70
2023/01/01 02:33:29;;;;;;;9.35;4.15;;;;;;;;;;5124062;27;20490;-76
2023/01/01 02:36:04;;;;;;;13.23;4.70;;;;;;;;;;5113994;27;20474;-70
2023/01/01 02:38:30;;;;;;;12.43;4.10;;;;;;;;;;5120002;27;20673;-70
2023/01/01 02:40:59;;;;;;;23.25;12.25;;;;;;;;;;5115743;27;20039;-70
2023/01/01 02:43:25;;;;;;;47.28;26.15;;;;;;;;;;5120122;27;20065;-71
2023/01/01 02:45:54;;;;;;;33.53;19.40;;;;;;;;;;5118110;27;20036;-70
2023/01/01 02:48:36;;;;;;;48.95;28.20;;;;;;;;;;5117268;27;20038;-76
2023/01/01 02:51:04;;;;;;;35.38;22.52;;;;;;;;;;5114122;27;20321;-73
2023/01/01 02:53:35;;;;;;;33.63;19.45;;;;;;;;;;5112231;27;20047;-70
2023/01/01 02:56:22;;;;;;;31.17;18.00;;;;;;;;;;5113058;27;20027;-70
2023/01/01 03:02:01;;;;;;;11.02;6.75;;;;;;;;;;5106639;27;20138;-70
2023/01/01 03:04:36;;;;;;;11.82;5.90;;;;;;;;;;5112730;27;20396;-70
2023/01/01 03:07:21;;;;;;;12.35;5.90;;;;;;;;;;5114610;27;20031;-69
2023/01/01 03:09:54;;;;;;;15.52;6.10;;;;;;;;;;5119327;27;20598;-70
2023/01/01 03:12:24;;;;;;;10.95;5.68;;;;;;;;;;5115154;27;20031;-70
2023/01/01 03:14:53;;;;;;;13.98;6.22;;;;;;;;;;5106236;27;20031;-71
2023/01/01 03:17:28;;;;;;;9.30;4.53;;;;;;;;;;5113659;27;20051;-70
2023/01/01 03:19:56;;;;;;;16.60;6.28;;;;;;;;;;5113343;27;20034;-70
2023/01/01 03:22:24;;;;;;;8.30;4.05;;;;;;;;;;5108057;27;20165;-72
2023/01/01 03:24:53;;;;;;;8.88;4.90;;;;;;;;;;5113400;27;20068;-74
2023/01/01 03:27:26;;;;;;;12.68;5.28;;;;;;;;;;5116770;27;20031;-70
2023/01/01 03:29:55;;;;;;;8.57;4.82;;;;;;;;;;5111208;27;20103;-70
2023/01/01 03:32:59;;;;;;;10.75;5.35;;;;;;;;;;5113024;27;20039;-70
2023/01/01 03:35:29;;;;;;;9.88;4.93;;;;;;;;;;5111750;27;20107;-70
2023/01/01 03:37:57;;;;;;;19.92;5.85;;;;;;;;;;5114459;27;20039;-71
2023/01/01 03:40:25;;;;;;;11.10;4.82;;;;;;;;;;5110118;27;20130;-70
2023/01/01 03:42:53;;;;;;;13.68;6.50;;;;;;;;;;5120336;27;20087;-70
2023/01/01 03:45:23;;;;;;;11.02;5.35;;;;;;;;;;5110549;27;20111;-70
2023/01/01 03:47:49;;;;;;;13.35;5.07;;;;;;;;;;5115417;27;20020;-70
2023/01/01 03:50:16;;;;;;;10.05;5.05;;;;;;;;;;5113410;27;20023;-70
2023/01/01 03:53:11;;;;;;;10.45;4.88;;;;;;;;;;5116638;27;20031;-70
2023/01/01 03:55:40;;;;;;;11.23;5.50;;;;;;;;;;5100401;27;20044;-70
2023/01/01 03:58:13;;;;;;;11.88;5.35;;;;;;;;;;5107533;27;20023;-70
2023/01/01 04:00:47;;;;;;;9.85;5.68;;;;;;;;;;5111161;27;20023;-70
2023/01/01 04:03:13;;;;;;;12.70;6.43;;;;;;;;;;5114678;27;20031;-70
2023/01/01 04:05:40;;;;;;;8.93;5.97;;;;;;;;;;5115860;27;20077;-70
2023/01/01 04:08:07;;;;;;;16.67;6.88;;;;;;;;;;5111745;27;20531;-71
2023/01/01 04:10:35;;;;;;;13.07;6.22;;;;;;;;;;5111840;27;20026;-70
2023/01/01 04:13:03;;;;;;;9.25;5.47;;;;;;;;;;5112500;27;20039;-70
2023/01/01 04:15:30;;;;;;;14.02;6.13;;;;;;;;;;5112753;27;20106;-70
2023/01/01 04:17:56;;;;;;;12.00;5.30;;;;;;;;;;5107714;27;20042;-71
2023/01/01 04:20:23;;;;;;;11.57;5.13;;;;;;;;;;5112267;27;20390;-70
2023/01/01 04:22:49;;;;;;;11.98;5.07;;;;;;;;;;5106456;27;20080;-69
2023/01/01 04:25:16;;;;;;;13.48;6.30;;;;;;;;;;5109213;27;20062;-71
2023/01/01 04:27:43;;;;;;;11.98;6.18;;;;;;;;;;5123047;27;20094;-71
2023/01/01 04:30:10;;;;;;;15.63;5.65;;;;;;;;;;5117102;27;20107;-74
2023/01/01 04:32:37;;;;;;;10.88;5.28;;;;;;;;;;5104862;27;20099;-70
2023/01/01 04:35:03;;;;;;;10.45;5.13;;;;;;;;;;5118730;27;20031;-71
2023/01/01 04:37:29;;;;;;;13.23;5.22;;;;;;;;;;5110920;27;20455;-70
2023/01/01 04:39:55;;;;;;;9.98;5.30;;;;;;;;;;5113473;27;20564;-70
2023/01/01 04:42:21;;;;;;;12.85;5.53;;;;;;;;;;5105568;27;20392;-71
2023/01/01 04:44:49;;;;;;;9.85;5.93;;;;;;;;;;5108688;27;20519;-70
2023/01/01 04:47:15;;;;;;;8.85;5.15;;;;;;;;;;5104838;27;20132;-70
2023/01/01 04:49:41;;;;;;;8.82;5.03;;;;;;;;;;5114926;27;20023;-71
2023/01/01 04:52:07;;;;;;;9.20;4.75;;;;;;;;;;5108181;27;20039;-72
2023/01/01 04:54:33;;;;;;;28.90;8.13;;;;;;;;;;5108188;27;20032;-70
2023/01/01 04:57:00;;;;;;;9.57;5.20;;;;;;;;;;5104761;27;20365;-69
2023/01/01 04:59:26;;;;;;;10.90;4.28;;;;;;;;;;5111147;27;20567;-70
2023/01/01 05:01:52;;;;;;;13.63;6.32;;;;;;;;;;5105346;27;20096;-70
2023/01/01 05:04:18;;;;;;;11.77;7.05;;;;;;;;;;5109372;27;20084;-70
2023/01/01 05:06:44;;;;;;;15.30;8.38;;;;;;;;;;5105569;27;20088;-70
2023/01/01 05:09:11;;;;;;;13.15;6.32;;;;;;;;;;5107639;27;20077;-70
2023/01/01 05:11:37;;;;;;;10.65;5.28;;;;;;;;;;5116495;27;20118;-70
2023/01/01 05:14:03;;;;;;;13.45;5.60;;;;;;;;;;5106759;27;20042;-70
2023/01/01 05:16:32;;;;;;;13.95;5.80;;;;;;;;;;5105882;28;20039;-71
2023/01/01 05:18:59;;;;;;;15.38;6.07;;;;;;;;;;5105328;27;20421;-70
2023/01/01 05:21:26;;;;;;;9.60;5.22;;;;;;;;;;5106859;27;20024;-70
2023/01/01 05:23:56;;;;;;;16.02;5.70;;;;;;;;;;5108684;27;20138;-70
2023/01/01 05:26:23;;;;;;;10.20;5.97;;;;;;;;;;5114018;27;20515;-71
2023/01/01 05:28:49;;;;;;;11.68;5.10;;;;;;;;;;5109092;27;20049;-70
2023/01/01 05:31:17;;;;;;;15.52;5.80;;;;;;;;;;5105578;27;20484;-73
2023/01/01 05:33:43;;;;;;;14.88;5.75;;;;;;;;;;5121579;27;20035;-70
2023/01/01 05:36:10;;;;;;;13.52;5.53;;;;;;;;;;5107533;28;20098;-70
2023/01/01 05:38:37;;;;;;;13.90;5.28;;;;;;;;;;5104904;28;20054;-70
2023/01/01 05:41:10;;;;;;;9.57;4.63;;;;;;;;;;5104154;27;20630;-70
2023/01/01 05:43:36;;;;;;;15.43;5.55;;;;;;;;;;5105387;28;20020;-70
2023/01/01 05:46:04;;;;;;;8.98;5.30;;;;;;;;;;5110626;27;20035;-71
2023/01/01 05:48:30;;;;;;;10.15;4.47;;;;;;;;;;5109887;27;20015;-70
2023/01/01 05:51:07;;;;;;;8.05;4.72;;;;;;;;;;5103583;28;20034;-71
2023/01/01 05:53:33;;;;;;;13.48;5.25;;;;;;;;;;5115081;27;20172;-70
2023/01/01 05:56:00;;;;;;;9.82;5.28;;;;;;;;;;5110341;27;20031;-70
2023/01/01 05:58:26;;;;;;;9.75;5.30;;;;;;;;;;5109311;27;20016;-70
2023/01/01 06:00:53;;;;;;;13.25;5.57;;;;;;;;;;5108064;27;20026;-70
2023/01/01 06:03:19;;;;;;;20.25;7.63;;;;;;;;;;5118754;27;20570;-70
2023/01/01 06:05:45;;;;;;;13.43;5.43;;;;;;;;;;5111447;27;20028;-70
2023/01/01 06:08:12;;;;;;;13.27;5.38;;;;;;;;;;5117797;27;20105;-70
2023/01/01 06:10:38;;;;;;;14.52;5.55;;;;;;;;;;5111622;27;20218;-70
2023/01/01 06:13:04;;;;;;;11.63;5.53;;;;;;;;;;5109779;27;20020;-70
2023/01/01 06:15:30;;;;;;;10.15;5.00;;;;;;;;;;5109430;27;20031;-70
2023/01/01 06:17:57;;;;;;;8.88;5.93;;;;;;;;;;5110345;27;20273;-70
2023/01/01 06:20:24;;;;;;;11.25;6.28;;;;;;;;;;5112620;27;20933;-69
2023/01/01 06:22:50;;;;;;;11.57;5.45;;;;;;;;;;5112581;27;20030;-70
2023/01/01 06:25:16;;;;;;;14.55;6.30;;;;;;;;;;5114016;27;20027;-70
2023/01/01 06:27:42;;;;;;;11.05;5.28;;;;;;;;;;5111405;27;20064;-70
2023/01/01 06:30:09;;;;;;;12.38;5.20;;;;;;;;;;5113557;27;20034;-75
2023/01/01 06:32:35;;;;;;;12.40;6.80;;;;;;;;;;5118942;27;20027;-70
2023/01/01 06:35:01;;;;;;;12.32;7.65;;;;;;;;;;5109889;27;20031;-69
2023/01/01 06:37:28;;;;;;;16.80;7.78;;;;;;;;;;5113782;27;20035;-71
2023/01/01 06:39:54;;;;;;;14.93;7.60;;;;;;;;;;5108017;27;20055;-70
2023/01/01 06:42:20;;;;;;;17.73;7.63;;;;;;;;;;5113125;27;20024;-73
2023/01/01 06:44:46;;;;;;;10.63;6.85;;;;;;;;;;5112630;27;20054;-70
2023/01/01 06:47:12;;;;;;;19.42;6.70;;;;;;;;;;5112289;27;20027;-75
2023/01/01 06:49:38;;;;;;;10.50;6.72;;;;;;;;;;5113650;27;20031;-70
2023/01/01 06:52:04;;;;;;;12.07;6.25;;;;;;;;;;5117215;27;20033;-70
2023/01/01 06:54:31;;;;;;;12.48;6.57;;;;;;;;;;5115495;27;20027;-70
2023/01/01 06:56:57;;;;;;;15.18;6.65;;;;;;;;;;5107832;27;20046;-69
2023/01/01 06:59:23;;;;;;;12.73;5.20;;;;;;;;;;5117058;27;20019;-72
2023/01/01 07:01:49;;;;;;;11.00;5.38;;;;;;;;;;5122177;27;20023;-71
2023/01/01 07:04:16;;;;;;;9.60;5.00;;;;;;;;;;5108522;27;20863;-70
2023/01/01 07:06:42;;;;;;;8.13;5.20;;;;;;;;;;5110864;27;20556;-70
2023/01/01 07:09:09;;;;;;;12.55;6.95;;;;;;;;;;5109402;27;20030;-70
2023/01/01 07:11:35;;;;;;;14.30;7.13;;;;;;;;;;5109167;27;20623;-70
2023/01/01 07:14:01;;;;;;;10.02;5.70;;;;;;;;;;5113509;27;20027;-70
2023/01/01 07:16:28;;;;;;;11.98;6.65;;;;;;;;;;5108587;27;20062;-70
2023/01/01 07:18:56;;;;;;;17.73;8.52;;;;;;;;;;5111419;27;20031;-70
2023/01/01 07:21:29;;;;;;;14.65;8.00;;;;;;;;;;5106077;27;20118;-75
2023/01/01 07:23:56;;;;;;;14.60;7.57;;;;;;;;;;5115983;27;20019;-70
2023/01/01 07:26:26;;;;;;;9.70;6.45;;;;;;;;;;5109192;27;20028;-75
2023/01/01 07:28:52;;;;;;;18.65;6.97;;;;;;;;;;5109835;27;20055;-70
2023/01/01 07:31:18;;;;;;;13.95;6.20;;;;;;;;;;5109828;27;20372;-70
2023/01/01 07:33:44;;;;;;;11.02;7.20;;;;;;;;;;5111263;27;20114;-71
2023/01/01 07:36:11;;;;;;;16.05;8.32;;;;;;;;;;5116240;27;20031;-71
2023/01/01 07:38:37;;;;;;;11.15;6.55;;;;;;;;;;5113084;27;20686;-70
2023/01/01 07:41:03;;;;;;;15.60;8.18;;;;;;;;;;5111101;27;20023;-71
2023/01/01 07:43:29;;;;;;;11.80;6.15;;;;;;;;;;5113364;27;20007;-70
2023/01/01 07:45:57;;;;;;;7.80;5.85;;;;;;;;;;5109458;27;20033;-71
2023/01/01 07:48:24;;;;;;;10.00;5.55;;;;;;;;;;5108678;27;20071;-71
2023/01/01 07:50:50;;;;;;;9.85;5.25;;;;;;;;;;5110095;27;20475;-71
2023/01/01 07:53:16;;;;;;;10.55;4.95;;;;;;;;;;5108684;27;20027;-71
2023/01/01 07:55:44;;;;;;;14.90;6.30;;;;;;;;;;5117140;27;20034;-71
2023/01/01 07:58:11;;;;;;;9.35;5.70;;;;;;;;;;5114889;27;20022;-70
2023/01/01 08:00:37;;;;;;;8.40;5.55;;;;;;;;;;5123540;27;20181;-70
2023/01/01 08:03:04;;;;;;;12.13;5.57;;;;;;;;;;5112357;27;20027;-70
2023/01/01 08:05:32;;;;;;;11.27;4.93;;;;;;;;;;5105258;27;20047;-71
2023/01/01 08:07:59;;;;;;;7.13;4.47;;;;;;;;;;5120182;27;20020;-71
2023/01/01 08:10:25;;;;;;;10.13;4.57;;;;;;;;;;5113323;27;20030;-71
2023/01/01 08:12:51;;;;;;;8.10;4.57;;;;;;;;;;5106097;27;20689;-71
2023/01/01 08:15:17;;;;;;;12.82;4.68;;;;;;;;;;5107723;27;20036;-71
2023/01/01 08:17:43;;;;;;;6.60;4.25;;;;;;;;;;5108827;27;20505;-71
2023/01/01 08:20:10;;;;;;;9.60;4.90;;;;;;;;;;5121908;27;20118;-71
2023/01/01 08:22:36;;;;;;;10.65;4.85;;;;;;;;;;5110216;27;20027;-71
2023/01/01 08:25:02;;;;;;;12.60;5.03;;;;;;;;;;5108757;27;20088;-71
2023/01/01 08:27:28;;;;;;;14.35;6.15;;;;;;;;;;5112007;27;20007;-70
2023/01/01 08:29:55;;;;;;;7.95;4.28;;;;;;;;;;5110291;27;20024;-71
2023/01/01 08:32:21;;;;;;;8.10;4.20;;;;;;;;;;5113981;27;20030;-71
2023/01/01 08:34:47;;;;;;;11.32;4.72;;;;;;;;;;5111255;27;20098;-71
2023/01/01 08:37:13;;;;;;;9.30;4.35;;;;;;;;;;5108938;27;20189;-71
2023/01/01 08:39:40;;;;;;;11.07;4.32;;;;;;;;;;5104144;27;20386;-76
2023/01/01 08:42:06;;;;;;;8.57;4.50;;;;;;;;;;5120555;27;20639;-71
2023/01/01 08:44:32;;;;;;;8.80;4.80;;;;;;;;;;5109989;27;20027;-71
2023/01/01 08:46:58;;;;;;;11.20;4.68;;;;;;;;;;5111106;27;20048;-72
2023/01/01 08:49:24;;;;;;;8.23;4.20;;;;;;;;;;5104758;27;20055;-71
2023/01/01 08:51:51;;;;;;;8.30;3.78;;;;;;;;;;5116474;27;20026;-71
2023/01/01 08:54:17;;;;;;;9.73;4.53;;;;;;;;;;5119093;27;20103;-72
2023/01/01 08:56:43;;;;;;;10.07;4.68;;;;;;;;;;5117936;27;20037;-72
2023/01/01 08:59:09;;;;;;;8.25;4.38;;;;;;;;;;5109206;27;20032;-71
2023/01/01 09:01:35;;;;;;;12.52;5.07;;;;;;;;;;5106912;27;20019;-79
2023/01/01 09:04:01;;;;;;;6.50;4.40;;;;;;;;;;5106674;27;20031;-75
2023/01/01 09:06:27;;;;;;;15.43;5.43;;;;;;;;;;5115884;27;20023;-71
2023/01/01 09:08:54;;;;;;;7.10;4.22;;;;;;;;;;5102799;27;20020;-72
2023/01/01 09:11:27;;;;;;;9.75;5.43;;;;;;;;;;5109228;27;20047;-71
2023/01/01 09:13:53;;;;;;;10.52;5.20;;;;;;;;;;5110260;27;20077;-71
2023/01/01 09:16:20;;;;;;;9.38;5.18;;;;;;;;;;5107623;27;20126;-71
2023/01/01 09:18:46;;;;;;;9.52;4.50;;;;;;;;;;5107550;27;20049;-72
2023/01/01 09:21:12;;;;;;;10.93;5.28;;;;;;;;;;5107411;27;20491;-71
2023/01/01 09:23:39;;;;;;;12.02;5.50;;;;;;;;;;5107790;27;20523;-71
2023/01/01 09:26:06;;;;;;;9.80;4.75;;;;;;;;;;5116268;27;20035;-71
2023/01/01 09:28:32;;;;;;;6.60;4.32;;;;;;;;;;5120823;27;20396;-70
2023/01/01 09:30:59;;;;;;;7.65;4.70;;;;;;;;;;5111650;28;20019;-71
2023/01/01 09:33:26;;;;;;;9.10;4.72;;;;;;;;;;5106146;27;20027;-72
2023/01/01 09:35:52;;;;;;;8.23;4.82;;;;;;;;;;5115450;27;20049;-71
2023/01/01 09:38:18;;;;;;;7.47;4.32;;;;;;;;;;5113418;27;20051;-72
2023/01/01 09:41:06;;;;;;;8.25;4.38;;;;;;;;;;5120115;27;20031;-71
2023/01/01 09:43:35;;;;;;;5.88;3.90;;;;;;;;;;5079333;27;20092;-71
2023/01/01 09:46:05;;;;;;;7.68;4.70;;;;;;;;;;5111416;27;20022;-71
2023/01/01 09:48:31;;;;;;;8.02;4.32;;;;;;;;;;5118198;27;20055;-71
2023/01/01 09:50:58;;;;;;;5.45;3.55;;;;;;;;;;5121703;27;20031;-71
2023/01/01 09:53:43;;;;;;;7.75;3.97;;;;;;;;;;5112631;27;20555;-71
2023/01/01 09:56:20;;;;;;;8.10;4.40;;;;;;;;;;5122120;27;20374;-71
2023/01/01 09:58:46;;;;;;;7.15;4.20;;;;;;;;;;5122010;27;20089;-70
2023/01/01 10:01:19;;;;;;;9.55;4.22;;;;;;;;;;5119970;27;20029;-71
2023/01/01 10:03:52;;;;;;;6.65;3.72;;;;;;;;;;5114287;27;20008;-71
2023/01/01 10:06:28;;;;;;;9.77;4.78;;;;;;;;;;5111408;27;20024;-71
2023/01/01 10:09:20;;;;;;;8.27;4.68;;;;;;;;;;5116649;27;20015;-71
2023/01/01 10:11:46;;;;;;;;;;;;;;;;;;5117386;27;20034;-71
2023/01/01 10:14:25;;;;;;;10.13;3.88;;;;;;;;;;5125055;27;19955;-71
2023/01/01 10:16:53;;;;;;;8.48;4.40;;;;;;;;;;5115958;27;20025;-71
2023/01/01 10:19:35;;;;;;;7.97;4.05;;;;;;;;;;5116154;27;20153;-71
2023/01/01 10:22:01;;;;;;;;;;;;;;;;;;5119735;27;20575;-70
2023/01/01 10:24:34;;;;;;;7.72;3.80;;;;;;;;;;5108947;27;20406;-71
2023/01/01 10:27:03;;;;;;;9.57;3.97;;;;;;;;;;5119593;27;20023;-71
2023/01/01 10:29:38;;;;;;;9.10;3.63;;;;;;;;;;5114305;27;20020;-70
2023/01/01 10:32:14;;;;;;;7.22;3.40;;;;;;;;;;5116737;27;20027;-70
2023/01/01 10:34:40;;;;;;;7.20;3.45;;;;;;;;;;5108587;27;20531;-71
2023/01/01 10:37:08;;;;;;;6.57;3.38;;;;;;;;;;5114513;27;20507;-70
2023/01/01 10:39:35;;;;;;;7.43;4.07;;;;;;;;;;5116984;27;20667;-73
2023/01/01 10:42:02;;;;;;;9.73;6.45;;;;;;;;;;5117371;27;20031;-71
2023/01/01 10:44:31;;;;;;;7.55;5.10;;;;;;;;;;5114555;27;20023;-72
2023/01/01 10:46:58;;;;;;;7.60;4.40;;;;;;;;;;5118465;27;20471;-76
2023/01/01 10:49:24;;;;;;;7.13;4.40;;;;;;;;;;5108890;27;20480;-72
2023/01/01 10:51:51;;;;;;;7.43;4.85;;;;;;;;;;5112608;27;20039;-72
2023/01/01 10:54:20;;;;;;;6.40;3.95;;;;;;;;;;5113416;27;20423;-72
2023/01/01 10:56:47;;;;;;;9.18;4.43;;;;;;;;;;5122739;27;20102;-71
2023/01/01 10:59:32;;;;;;;7.18;4.90;;;;;;;;;;5108913;27;20020;-71
2023/01/01 11:02:14;;;;;;;14.32;4.90;;;;;;;;;;5110845;27;20020;-71
2023/01/01 11:04:40;;;;;;;9.10;4.70;;;;;;;;;;5113204;27;20484;-73
2023/01/01 11:07:07;;;;;;;5.80;4.50;;;;;;;;;;5115604;27;20112;-74
2023/01/01 11:09:38;;;;;;;10.65;6.15;;;;;;;;;;5110618;27;20028;-73
2023/01/01 11:12:08;;;;;;;11.88;6.15;;;;;;;;;;5113929;27;20027;-72
2023/01/01 11:14:34;;;;;;;13.32;6.97;;;;;;;;;;5110762;27;20122;-72
2023/01/01 11:17:00;;;;;;;12.32;6.93;;;;;;;;;;5111815;27;20023;-72
2023/01/01 11:19:35;;;;;;;12.25;6.35;;;;;;;;;;5110700;27;20028;-72
2023/01/01 11:22:02;;;;;;;12.20;6.22;;;;;;;;;;5112348;27;20030;-71
2023/01/01 11:24:29;;;;;;;8.95;5.53;;;;;;;;;;5115288;27;20722;-76
2023/01/01 11:27:14;;;;;;;9.27;5.85;;;;;;;;;;5113246;27;20027;-72
2023/01/01 11:29:40;;;;;;;7.95;5.85;;;;;;;;;;5110593;27;20027;-72
2023/01/01 11:32:07;;;;;;;11.75;7.65;;;;;;;;;;5110090;27;20034;-79
2023/01/01 11:34:36;;;;;;;11.05;5.95;;;;;;;;;;5111784;27;20563;-72
2023/01/01 11:37:16;;;;;;;11.13;6.90;;;;;;;;;;5114256;27;20955;-72
2023/01/01 11:39:46;;;;;;;12.52;7.10;;;;;;;;;;5112111;27;20047;-72
2023/01/01 11:42:16;;;;;;;13.18;6.38;;;;;;;;;;5116051;27;20626;-72
2023/01/01 11:44:45;;;;;;;10.52;6.72;;;;;;;;;;5118819;27;20023;-71
2023/01/01 11:47:21;;;;;;;15.40;6.90;;;;;;;;;;5111796;27;20472;-71
2023/01/01 11:49:53;;;;;;;16.17;7.57;;;;;;;;;;5118212;27;20015;-71
2023/01/01 11:52:37;;;;;;;10.20;7.25;;;;;;;;;;5112928;27;20031;-71
2023/01/01 11:55:15;;;;;;;10.85;6.45;;;;;;;;;;5109750;27;20035;-70
2023/01/01 11:57:47;;;;;;;13.48;6.35;;;;;;;;;;5110250;27;20027;-71
2023/01/01 12:00:15;;;;;;;9.20;6.45;;;;;;;;;;5111314;27;20042;-74
2023/01/01 12:02:48;;;;;;;10.52;6.13;;;;;;;;;;5109529;27;20064;-73
2023/01/01 12:05:21;;;;;;;15.35;6.28;;;;;;;;;;5109384;27;20076;-76
2023/01/01 12:07:48;;;;;;;12.35;5.57;;;;;;;;;;5106151;27;20273;-74
2023/01/01 12:10:20;;;;;;;18.23;6.70;;;;;;;;;;5109479;27;20020;-72
2023/01/01 12:12:57;;;;;;;12.95;6.53;;;;;;;;;;5107259;27;20042;-73
2023/01/01 12:15:36;;;;;;;13.52;6.85;;;;;;;;;;5113198;27;20084;-74
2023/01/01 12:18:02;;;;;;;17.17;6.45;;;;;;;;;;5110297;27;20027;-74
2023/01/01 12:20:31;;;;;;;20.08;9.82;;;;;;;;;;5107921;27;20467;-73
2023/01/01 12:22:58;;;;;;;13.82;6.18;;;;;;;;;;5109898;27;20039;-74
2023/01/01 12:25:27;;;;;;;10.95;6.30;;;;;;;;;;5108876;27;20039;-73
2023/01/01 12:28:06;;;;;;;19.15;7.13;;;;;;;;;;5116600;27;20027;-73
2023/01/01 12:30:35;;;;;;;21.58;7.28;;;;;;;;;;5114433;27;20024;-74
2023/01/01 12:33:04;;;;;;;13.93;6.85;;;;;;;;;;5109802;27;20031;-74
2023/01/01 12:35:39;;;;;;;13.93;7.07;;;;;;;;;;5112617;27;20038;-74
2023/01/01 12:38:24;;;;;;;9.68;6.70;;;;;;;;;;5115345;27;20102;-73
2023/01/01 12:40:50;;;;;;;15.88;7.00;;;;;;;;;;5109172;27;20034;-74
2023/01/01 12:43:40;;;;;;;19.10;7.80;;;;;;;;;;5108821;27;20038;-73
2023/01/01 12:46:20;;;;;;;16.00;8.25;;;;;;;;;;5107302;27;20825;-73
2023/01/01 12:48:46;;;;;;;10.38;6.60;;;;;;;;;;5109446;27;20443;-74
2023/01/01 12:51:25;;;;;;;10.18;6.47;;;;;;;;;;5106682;27;20032;-73
2023/01/01 12:53:57;;;;;;;11.93;7.18;;;;;;;;;;5112913;27;20043;-74
2023/01/01 12:56:29;;;;;;;18.65;7.32;;;;;;;;;;5107176;27;20015;-72
2023/01/01 12:59:01;;;;;;;12.00;7.05;;;;;;;;;;5110582;27;20035;-76
2023/01/01 13:01:29;;;;;;;13.02;7.53;;;;;;;;;;5109354;27;20034;-73
2023/01/01 13:04:01;;;;;;;11.07;7.15;;;;;;;;;;5107706;27;20024;-73
2023/01/01 13:06:35;;;;;;;12.35;6.65;;;;;;;;;;5110575;27;20034;-73
2023/01/01 13:09:06;;;;;;;11.55;7.13;;;;;;;;;;5106151;27;20081;-74
2023/01/01 13:11:32;;;;;;;;;;;;;;;;;;5110090;27;20054;-74
2023/01/01 13:13:59;;;;;;;11.10;5.90;;;;;;;;;;5106852;27;20343;-74
2023/01/01 13:16:51;;;;;;;10.88;6.38;;;;;;;;;;5110774;27;20026;-75
2023/01/01 13:19:17;;;;;;;;;;;;;;;;;;5105300;27;20075;-75
2023/01/01 13:21:43;;;;;;;12.13;7.00;;;;;;;;;;5105639;27;19912;-75
2023/01/01 13:24:20;;;;;;;24.67;7.25;;;;;;;;;;5112104;27;20027;-76
2023/01/01 13:26:47;;;;;;;37.83;7.88;;;;;;;;;;5113606;27;20030;-76
2023/01/01 13:29:14;;;;;;;21.00;6.47;;;;;;;;;;5116591;27;20029;-74
2023/01/01 13:31:40;;;;;;;13.25;7.03;;;;;;;;;;5109778;27;20039;-72
2023/01/01 13:34:25;;;;;;;12.88;6.70;;;;;;;;;;5110333;27;20027;-75
2023/01/01 13:37:18;;;;;;;12.38;7.50;;;;;;;;;;5111454;27;20669;-74
2023/01/01 13:39:54;;;;;;;16.25;6.97;;;;;;;;;;5116072;27;20106;-76
2023/01/01 13:42:39;;;;;;;13.05;7.25;;;;;;;;;;5109903;27;20484;-77
2023/01/01 13:45:16;;;;;;;9.77;6.25;;;;;;;;;;5114191;27;20061;-75
2023/01/01 13:47:56;;;;;;;9.52;6.43;;;;;;;;;;5103797;27;20031;-77
2023/01/01 13:50:37;;;;;;;11.30;6.82;;;;;;;;;;5107987;27;20030;-78
2023/01/01 13:53:21;;;;;;;10.27;6.10;;;;;;;;;;5107424;27;20099;-81
2023/01/01 13:56:03;;;;;;;12.32;7.03;;;;;;;;;;5111625;27;20054;-76
2023/01/01 13:58:29;;;;;;;13.10;7.10;;;;;;;;;;5109734;27;20088;-80
2023/01/01 14:01:14;;;;;;;11.40;6.70;;;;;;;;;;5109965;27;20024;-79
2023/01/01 14:03:42;;;;;;;9.88;6.80;;;;;;;;;;5117394;27;20088;-78
2023/01/01 14:06:14;;;;;;;11.07;7.05;;;;;;;;;;5104045;27;20053;-79
2023/01/01 14:08:40;;;;;;;8.98;6.50;;;;;;;;;;5109996;27;20039;-76
2023/01/01 14:11:20;;;;;;;10.95;6.25;;;;;;;;;;5108002;27;20022;-74
2023/01/01 14:13:47;;;;;;;18.80;7.22;;;;;;;;;;5105639;27;20520;-77
2023/01/01 14:16:14;;;;;;;14.95;6.97;;;;;;;;;;5116920;27;20044;-77
2023/01/01 14:18:43;;;;;;;10.95;6.88;;;;;;;;;;5119034;27;20030;-76
2023/01/01 14:21:16;;;;;;;10.52;6.10;;;;;;;;;;5113100;27;20031;-81
2023/01/01 14:23:44;;;;;;;12.27;6.55;;;;;;;;;;5112117;27;20020;-78
2023/01/01 14:26:30;;;;;;;11.85;6.25;;;;;;;;;;5110114;27;20732;-79
2023/01/01 14:28:57;;;;;;;10.20;7.05;;;;;;;;;;5106084;27;20894;-76
2023/01/01 14:31:28;;;;;;;10.85;6.63;;;;;;;;;;5112000;27;20024;-78
2023/01/01 14:33:54;;;;;;;10.37;5.60;;;;;;;;;;5117373;27;20039;-83
2023/01/01 14:36:28;;;;;;;12.98;6.57;;;;;;;;;;5115789;27;20704;-78
2023/01/01 14:38:55;;;;;;;15.45;6.05;;;;;;;;;;5114043;27;20047;-82
2023/01/01 14:41:29;;;;;;;14.93;7.15;;;;;;;;;;5114576;27;20015;-78
2023/01/01 14:43:57;;;;;;;12.93;6.78;;;;;;;;;;5114554;27;20549;-80
2023/01/01 14:46:24;;;;;;;11.10;6.05;;;;;;;;;;5114256;27;20022;-76
2023/01/01 14:48:56;;;;;;;12.77;6.45;;;;;;;;;;5108921;27;20527;-79
2023/01/01 14:51:24;;;;;;;15.48;7.18;;;;;;;;;;5120739;27;20020;-78
2023/01/01 14:53:52;;;;;;;12.75;7.75;;;;;;;;;;5110029;27;20032;-76
2023/01/01 14:56:23;;;;;;;12.43;6.57;;;;;;;;;;5112761;27;20031;-78